»·PEaware :: N915TB KSNA-KBLH

N915TB :: KSNA-KBLH

FLIGHT INFORMATION

Flight Status: Arrived
Operator: Privately registered:
United States
More flights under this callsign
Pilot: Jake M. (20491)
Aircraft: SOCATA TBM-900
(TBM9)
More flights by this aircraft type
Origin: KSNA John Wayne-Orange Co
United States
Destination: KBLH Blythe
United States
More flights between these airports :: More routes between these airports
Route: MUSEL8 TRM V64 BLH
File this flight plan on PilotEdge
Remarks:
Altitude:
(Current/Filed)
19,000ft
Speed:
(Current/Filed)
280kts
Departed: 11-Feb-20 05:17 PM
Arrived: 11-Feb-20 06:00 PM
Distance/Time
Traveled:
158nm/0:43
Distance/Time
To Go:
Arrived

Flight Plot

Page will automatically refresh every two minutes.

Flight plan parsing failed; only flown route is shown


Map Options




Map Legend


Flown Route
Filed Route
Departure Airport
Arrival Airport
Navaid (VOR, NDB)
Fix

Horizontal Profiles

Position Reports

Time Latitude Longitude Heading Altitude Ground
Speed
11-Feb-20 17:01 33.676216 -117.871054 219 49ft 0kts
11-Feb-20 17:02 33.676216 -117.871054 219 49ft 0kts
11-Feb-20 17:03 33.676216 -117.871054 219 49ft 0kts
11-Feb-20 17:04 33.676216 -117.871054 219 49ft 0kts
11-Feb-20 17:05 33.676216 -117.871054 219 49ft 0kts
11-Feb-20 17:06 33.675968 -117.870860 123 49ft 0kts
11-Feb-20 17:07 33.675968 -117.870860 123 49ft 0kts
11-Feb-20 17:08 33.675960 -117.870846 124 49ft 2kts
11-Feb-20 17:09 33.675944 -117.870819 124 49ft 0kts
11-Feb-20 17:10 33.675944 -117.870819 124 49ft 0kts
11-Feb-20 17:11 33.675944 -117.870819 124 49ft 0kts
11-Feb-20 17:12 33.675944 -117.870819 124 49ft 0kts
11-Feb-20 17:13 33.678214 -117.868737 27 45ft 20kts
11-Feb-20 17:14 33.681260 -117.866528 117 41ft 0kts
11-Feb-20 17:15 33.680689 -117.865666 198 39ft 14kts
11-Feb-20 17:17 33.672418 -117.870880 207 169ft 113kts
11-Feb-20 17:18 33.639474 -117.886690 190 2177ft 134kts
11-Feb-20 17:19 33.601682 -117.893431 181 4154ft 144kts
11-Feb-20 17:20 33.589523 -117.853458 83 6025ft 146kts
11-Feb-20 17:21 33.590935 -117.804734 82 7986ft 149kts
11-Feb-20 17:22 33.592130 -117.755098 80 10057ft 153kts
11-Feb-20 17:23 33.593340 -117.702363 79 11847ft 164kts
11-Feb-20 17:24 33.594084 -117.667485 79 13024ft 168kts
11-Feb-20 17:25 33.595271 -117.611305 77 14970ft 169kts
11-Feb-20 17:26 33.596477 -117.554163 76 16726ft 171kts
11-Feb-20 17:27 33.597662 -117.496218 75 18437ft 175kts
11-Feb-20 17:28 33.599113 -117.430941 78 19103ft 229kts
11-Feb-20 17:29 33.600651 -117.346943 80 19074ft 268kts
11-Feb-20 17:30 33.602338 -117.254672 80 19065ft 280kts
11-Feb-20 17:31 33.604015 -117.160646 80 19063ft 284kts
11-Feb-20 17:32 33.609220 -117.066687 68 19072ft 277kts
11-Feb-20 17:33 33.630007 -116.979551 52 19077ft 266kts
11-Feb-20 17:34 33.666949 -116.901106 52 19078ft 269kts
11-Feb-20 17:35 33.685189 -116.813823 87 19089ft 294kts
11-Feb-20 17:35 33.678170 -116.732104 87 19080ft 295kts
11-Feb-20 17:37 33.668292 -116.617720 87 19081ft 295kts
11-Feb-20 17:38 33.659820 -116.519699 87 19080ft 294kts
11-Feb-20 17:38 33.652726 -116.438276 87 19080ft 293kts
11-Feb-20 17:39 33.644147 -116.340562 88 19080ft 293kts
11-Feb-20 17:41 33.636976 -116.227035 84 19080ft 290kts
11-Feb-20 17:41 33.634196 -116.143986 84 19080ft 289kts
11-Feb-20 17:42 33.630839 -116.046355 84 19084ft 289kts
11-Feb-20 17:44 33.626834 -115.932769 84 19089ft 289kts
11-Feb-20 17:44 33.623905 -115.851448 84 19090ft 289kts
11-Feb-20 17:45 33.620471 -115.753956 83 19090ft 288kts
11-Feb-20 17:46 33.618415 -115.657299 82 19065ft 289kts
11-Feb-20 17:47 33.616340 -115.561306 83 17181ft 285kts
11-Feb-20 17:48 33.614192 -115.465872 83 15251ft 280kts
11-Feb-20 17:49 33.612034 -115.373140 83 13344ft 271kts
11-Feb-20 17:50 33.609922 -115.284473 84 11401ft 257kts
11-Feb-20 17:51 33.607828 -115.199397 85 9481ft 251kts
11-Feb-20 17:52 33.605684 -115.115391 86 7554ft 249kts
11-Feb-20 17:53 33.603603 -115.035763 87 6392ft 231kts
11-Feb-20 17:54 33.601626 -114.962331 86 5989ft 202kts
11-Feb-20 17:55 33.599864 -114.893266 87 5989ft 221kts
11-Feb-20 17:56 33.581734 -114.821955 109 4675ft 219kts
11-Feb-20 17:57 33.566280 -114.746158 87 2245ft 223kts
11-Feb-20 17:58 33.602310 -114.716863 359 667ft 134kts
11-Feb-20 17:59 33.619536 -114.716805 162 395ft 12kts
11-Feb-20 18:00 33.615305 -114.715122 179 393ft 15kts

Navigation Log

Ident Type
Flight plan parsing failed, navigation log unavailable